createdAt,value
2023-01-27T00:01:34.284Z,47.70
2023-01-27T00:04:02.585Z,49.20
2023-01-27T00:06:36.595Z,52.20
2023-01-27T00:09:04.966Z,52.30
2023-01-27T00:11:52.386Z,48.20
2023-01-27T00:14:20.876Z,48.70
2023-01-27T00:16:49.558Z,44.20
2023-01-27T00:19:20.098Z,53.50
2023-01-27T00:22:07.517Z,50.90
2023-01-27T00:24:38.663Z,50.50
2023-01-27T00:27:09.681Z,48.00
2023-01-27T00:29:41.167Z,45.80
2023-01-27T00:32:29.297Z,54.30
2023-01-27T00:34:57.579Z,53.40
2023-01-27T00:37:25.751Z,51.40
2023-01-27T00:39:54.958Z,54.40
2023-01-27T00:42:23.339Z,55.10
2023-01-27T00:45:10.661Z,53.90
2023-01-27T00:47:38.875Z,52.00
2023-01-27T00:50:08.126Z,56.70
2023-01-27T00:52:37.041Z,55.70
2023-01-27T00:55:06.358Z,58.00
2023-01-27T00:57:35.075Z,56.90
2023-01-27T01:00:06.982Z,57.20
2023-01-27T01:02:35.876Z,66.20
2023-01-27T01:05:05.940Z,57.60
2023-01-27T01:07:34.307Z,60.20
2023-01-27T01:10:02.789Z,59.20
2023-01-27T01:12:30.941Z,60.00
2023-01-27T01:14:59.671Z,55.40
2023-01-27T01:17:28.047Z,55.20
2023-01-27T01:19:56.432Z,61.50
2023-01-27T01:22:24.616Z,59.20
2023-01-27T01:24:53.715Z,54.70
2023-01-27T01:27:21.896Z,60.40
2023-01-27T01:29:50.377Z,56.30
2023-01-27T01:32:18.760Z,51.00
2023-01-27T01:34:47.044Z,56.80
2023-01-27T01:37:18.193Z,56.20
2023-01-27T01:39:46.381Z,53.90
2023-01-27T01:42:14.756Z,50.50
2023-01-27T01:44:45.829Z,49.40
2023-01-27T01:47:18.175Z,59.10
2023-01-27T01:49:47.845Z,59.70
2023-01-27T01:52:21.475Z,53.90
2023-01-27T01:54:55.156Z,48.40
2023-01-27T01:57:33.213Z,56.80
2023-01-27T02:00:07.341Z,56.30
2023-01-27T02:02:54.841Z,52.30
2023-01-27T02:05:32.230Z,57.60
2023-01-27T02:08:25.892Z,55.30
2023-01-27T02:10:54.890Z,55.50
2023-01-27T02:13:23.172Z,50.00
2023-01-27T02:15:54.015Z,56.00
2023-01-27T02:18:22.601Z,49.50
2023-01-27T02:20:54.334Z,56.40
2023-01-27T02:23:51.017Z,56.20
2023-01-27T02:26:27.263Z,53.70
2023-01-27T02:28:59.530Z,56.80
2023-01-27T02:31:28.683Z,49.30
2023-01-27T02:34:03.570Z,56.30
2023-01-27T02:36:35.323Z,50.10
2023-01-27T02:39:07.610Z,59.10
2023-01-27T02:41:57.256Z,45.60
2023-01-27T02:44:27.501Z,44.30
2023-01-27T02:46:56.288Z,48.70
2023-01-27T02:49:25.695Z,44.10
2023-01-27T02:51:54.191Z,46.50
2023-01-27T02:54:25.950Z,47.40
2023-01-27T02:56:54.224Z,48.60
2023-01-27T02:59:24.295Z,47.00
2023-01-27T03:01:53.147Z,46.10
2023-01-27T03:04:22.350Z,45.50
2023-01-27T03:06:50.643Z,43.50
2023-01-27T03:09:18.813Z,42.40
2023-01-27T03:12:06.227Z,42.60
2023-01-27T03:14:53.137Z,43.80
2023-01-27T03:17:40.452Z,47.00
2023-01-27T03:20:10.499Z,48.80
2023-01-27T03:22:38.899Z,43.40
2023-01-27T03:25:08.390Z,41.80
2023-01-27T03:27:37.061Z,46.40
2023-01-27T03:30:20.793Z,44.20
2023-01-27T03:32:58.450Z,44.40
2023-01-27T03:36:23.361Z,50.70
2023-01-27T03:39:11.412Z,46.80
2023-01-27T03:41:58.708Z,46.50
2023-01-27T03:44:46.639Z,43.90
2023-01-27T03:47:15.541Z,43.10
2023-01-27T03:49:44.225Z,48.10
2023-01-27T03:52:12.406Z,47.10
2023-01-27T03:54:40.790Z,46.40
2023-01-27T03:57:09.690Z,50.50
2023-01-27T03:59:37.867Z,45.50
2023-01-27T04:02:25.216Z,47.00
2023-01-27T04:05:13.354Z,49.70
2023-01-27T04:07:41.810Z,47.40
2023-01-27T04:10:11.187Z,49.60
2023-01-27T04:12:39.495Z,46.40
2023-01-27T04:15:08.752Z,50.60
2023-01-27T04:17:39.197Z,51.20
2023-01-27T04:20:08.467Z,58.10
2023-01-27T04:22:36.618Z,51.40
2023-01-27T04:25:05.898Z,63.60
2023-01-27T04:27:34.519Z,51.50
2023-01-27T04:30:02.905Z,58.30
2023-01-27T04:32:31.174Z,50.30
2023-01-27T04:34:59.361Z,59.30
2023-01-27T04:37:27.851Z,50.90
2023-01-27T04:39:56.033Z,50.70
2023-01-27T04:42:24.724Z,55.80
2023-01-27T04:44:53.205Z,58.30
2023-01-27T04:47:21.687Z,61.60
2023-01-27T04:49:49.965Z,57.90
2023-01-27T04:52:18.150Z,57.50
2023-01-27T04:54:46.336Z,61.70
2023-01-27T04:57:15.228Z,60.50
2023-01-27T04:59:43.711Z,60.00
2023-01-27T05:02:12.180Z,70.20
2023-01-27T05:04:40.491Z,65.70
2023-01-27T05:07:09.785Z,72.20
2023-01-27T05:09:38.173Z,66.50
2023-01-27T05:12:06.564Z,63.50
2023-01-27T05:14:35.159Z,66.50
2023-01-27T05:17:03.519Z,77.70
2023-01-27T05:19:32.021Z,65.80
2023-01-27T05:22:00.510Z,63.50
2023-01-27T05:24:28.975Z,64.30
2023-01-27T05:26:57.886Z,64.80
2023-01-27T05:29:26.477Z,68.50
2023-01-27T05:31:55.283Z,55.70
2023-01-27T05:34:23.967Z,60.50
2023-01-27T05:36:52.139Z,65.40
2023-01-27T05:39:20.322Z,60.90
2023-01-27T05:41:49.423Z,57.50
2023-01-27T05:44:18.110Z,57.50
2023-01-27T05:46:46.749Z,54.40
2023-01-27T05:49:14.983Z,58.10
2023-01-27T05:51:43.180Z,58.50
2023-01-27T05:54:11.549Z,54.50
2023-01-27T05:56:40.886Z,54.10
2023-01-27T05:59:10.693Z,53.60
2023-01-27T06:01:39.807Z,56.70
2023-01-27T06:04:09.586Z,69.20
2023-01-27T06:06:38.203Z,61.40
2023-01-27T06:09:06.468Z,52.10
2023-01-27T06:11:34.945Z,48.90
2023-01-27T06:14:03.238Z,55.70
2023-01-27T06:16:31.856Z,54.20
2023-01-27T06:19:00.300Z,55.30
2023-01-27T06:21:28.771Z,53.40
2023-01-27T06:23:58.469Z,48.30
2023-01-27T06:26:26.990Z,51.10
2023-01-27T06:28:57.796Z,58.70
2023-01-27T06:31:27.652Z,59.20
2023-01-27T06:33:55.937Z,54.50
2023-01-27T06:36:24.519Z,60.10
2023-01-27T06:38:53.109Z,48.30
2023-01-27T06:41:21.603Z,49.50
2023-01-27T06:43:49.977Z,50.10
2023-01-27T06:46:18.381Z,55.30
2023-01-27T06:48:46.757Z,53.00
2023-01-27T06:51:16.075Z,54.30
2023-01-27T06:53:44.547Z,47.00
2023-01-27T06:56:12.927Z,62.30
2023-01-27T06:58:41.207Z,61.10
2023-01-27T07:01:09.813Z,55.60
2023-01-27T07:03:38.282Z,61.20
2023-01-27T07:06:06.977Z,58.50
2023-01-27T07:08:35.358Z,54.60
2023-01-27T07:11:05.346Z,51.00
2023-01-27T07:13:33.871Z,57.80
2023-01-27T07:16:02.492Z,50.80
2023-01-27T07:18:31.363Z,53.40
2023-01-27T07:20:59.530Z,61.40
2023-01-27T07:23:27.717Z,52.50
2023-01-27T07:25:55.902Z,49.80
2023-01-27T07:28:24.383Z,47.20
2023-01-27T07:30:52.884Z,52.90
2023-01-27T07:33:21.256Z,51.30
2023-01-27T07:35:50.087Z,53.80
2023-01-27T07:38:18.749Z,55.30
2023-01-27T07:40:47.544Z,52.20
2023-01-27T07:43:16.055Z,55.20
2023-01-27T07:45:49.179Z,55.30
2023-01-27T07:48:17.901Z,56.00
2023-01-27T07:50:46.797Z,57.00
2023-01-27T07:53:15.797Z,52.70
2023-01-27T07:55:44.187Z,44.30
2023-01-27T07:58:12.476Z,52.10
2023-01-27T08:00:41.420Z,51.60
2023-01-27T08:03:21.952Z,49.00
2023-01-27T08:05:50.712Z,54.00
2023-01-27T08:08:19.409Z,54.10
2023-01-27T08:10:49.553Z,56.10
2023-01-27T08:13:18.446Z,53.90
2023-01-27T08:15:46.809Z,56.90
2023-01-27T08:18:14.887Z,57.90
2023-01-27T08:20:45.147Z,54.80
2023-01-27T08:23:14.418Z,51.50
2023-01-27T08:25:48.845Z,51.40
2023-01-27T08:28:17.237Z,49.40
2023-01-27T08:30:46.992Z,49.80
2023-01-27T08:33:15.195Z,54.70
2023-01-27T08:35:44.992Z,51.10
2023-01-27T08:38:15.230Z,44.80
2023-01-27T08:40:43.753Z,43.70
2023-01-27T08:43:13.622Z,48.10
2023-01-27T08:45:42.297Z,44.90
2023-01-27T08:48:12.355Z,47.90
2023-01-27T08:50:41.077Z,38.00
2023-01-27T08:53:09.275Z,40.70
2023-01-27T08:55:37.651Z,44.90
2023-01-27T08:58:06.740Z,36.60
2023-01-27T09:00:35.642Z,46.60
2023-01-27T09:03:04.228Z,38.80
2023-01-27T09:05:32.923Z,41.10
2023-01-27T09:08:01.427Z,41.90
2023-01-27T09:10:29.686Z,40.30
2023-01-27T09:12:58.084Z,41.00
2023-01-27T09:15:26.458Z,42.40
2023-01-27T09:17:54.840Z,40.00
2023-01-27T09:20:23.640Z,44.70
2023-01-27T09:22:54.692Z,44.60
2023-01-27T09:25:23.523Z,40.60
2023-01-27T09:27:56.972Z,39.10
2023-01-27T09:33:00.265Z,45.30
2023-01-27T09:35:36.469Z,35.50
2023-01-27T09:38:07.088Z,45.70
2023-01-27T09:41:08.222Z,45.40
2023-01-27T09:44:10.381Z,38.80
2023-01-27T09:46:49.300Z,37.80
2023-01-27T09:49:48.799Z,34.80
2023-01-27T09:52:46.829Z,51.60
2023-01-27T09:55:36.936Z,45.00
2023-01-27T09:58:41.546Z,42.60
2023-01-27T10:01:43.290Z,40.90
2023-01-27T10:04:27.193Z,47.20
2023-01-27T10:07:01.569Z,43.80
2023-01-27T10:09:38.843Z,41.30
2023-01-27T10:12:22.606Z,48.50
2023-01-27T10:14:56.897Z,56.70
2023-01-27T10:17:28.352Z,46.50
2023-01-27T10:20:15.171Z,41.10
2023-01-27T10:23:18.025Z,44.80
2023-01-27T10:25:55.214Z,42.10
2023-01-27T10:28:27.790Z,47.40
2023-01-27T10:31:03.552Z,49.50
2023-01-27T10:33:51.877Z,53.30
2023-01-27T10:36:30.599Z,55.00
2023-01-27T10:39:10.651Z,41.20
2023-01-27T10:41:58.483Z,47.60
2023-01-27T10:44:42.421Z,38.60
2023-01-27T10:49:53.879Z,45.10
2023-01-27T10:52:28.135Z,40.80
2023-01-27T10:55:15.261Z,62.90
2023-01-27T10:58:10.382Z,43.30
2023-01-27T11:01:19.233Z,40.70
2023-01-27T11:03:44.071Z,49.00
2023-01-27T11:06:20.432Z,31.60
2023-01-27T11:08:54.334Z,35.90
2023-01-27T11:11:44.364Z,40.40
2023-01-27T11:14:38.544Z,29.90
2023-01-27T11:17:24.782Z,37.90
2023-01-27T11:20:13.493Z,32.10
2023-01-27T11:22:55.907Z,37.80
2023-01-27T11:25:36.489Z,36.00
2023-01-27T11:28:20.125Z,35.90
2023-01-27T11:31:02.861Z,34.10
2023-01-27T11:33:58.754Z,33.80
2023-01-27T11:36:27.335Z,29.10
2023-01-27T11:39:03.913Z,33.90
2023-01-27T11:41:40.376Z,36.70
2023-01-27T11:44:32.649Z,38.60
2023-01-27T11:47:04.782Z,30.80
2023-01-27T11:49:42.163Z,36.00
2023-01-27T11:52:14.097Z,39.10
2023-01-27T11:55:08.208Z,37.70
2023-01-27T11:57:41.571Z,39.30
2023-01-27T12:00:24.927Z,39.10
2023-01-27T12:03:04.623Z,41.70
2023-01-27T12:05:41.761Z,41.20
2023-01-27T12:08:10.243Z,43.10
2023-01-27T12:10:44.360Z,38.20
2023-01-27T12:13:19.335Z,34.80
2023-01-27T12:15:53.235Z,44.90
2023-01-27T12:21:03.906Z,43.30
2023-01-27T12:23:47.622Z,36.50
2023-01-27T12:26:16.310Z,44.40
2023-01-27T12:28:53.495Z,35.10
2023-01-27T12:31:30.853Z,36.60
2023-01-27T12:34:19.540Z,35.00
2023-01-27T12:36:48.409Z,43.10
2023-01-27T12:39:46.282Z,40.00
2023-01-27T12:42:37.418Z,50.20
2023-01-27T12:45:32.176Z,51.20
2023-01-27T12:48:13.974Z,45.30
2023-01-27T12:50:53.085Z,45.90
2023-01-27T12:53:28.249Z,49.20
2023-01-27T12:56:14.323Z,45.30
2023-01-27T12:59:00.417Z,46.40
2023-01-27T13:01:37.600Z,49.40
2023-01-27T13:04:22.038Z,49.30
2023-01-27T13:07:16.506Z,44.20
2023-01-27T13:12:29.979Z,41.00
2023-01-27T13:15:31.823Z,38.80
2023-01-27T13:18:12.394Z,44.70
2023-01-27T13:20:48.854Z,45.50
2023-01-27T13:23:27.880Z,56.90
2023-01-27T13:26:05.374Z,44.00
2023-01-27T13:28:52.703Z,43.50
2023-01-27T13:31:24.827Z,47.50
2023-01-27T13:34:15.766Z,51.90
2023-01-27T13:36:48.299Z,56.70
2023-01-27T13:39:43.325Z,48.60
2023-01-27T13:42:51.626Z,45.90
2023-01-27T13:45:29.014Z,50.30
2023-01-27T13:48:02.514Z,49.10
2023-01-27T13:50:37.547Z,49.50
2023-01-27T13:53:06.449Z,52.70
2023-01-27T13:55:34.624Z,48.90
2023-01-27T13:58:30.641Z,51.20
2023-01-27T14:01:24.432Z,51.80
2023-01-27T14:04:11.619Z,48.10
2023-01-27T14:06:53.962Z,48.10
2023-01-27T14:09:47.390Z,57.20
2023-01-27T14:12:24.472Z,45.90
2023-01-27T14:15:03.568Z,49.80
2023-01-27T14:18:04.308Z,54.50
2023-01-27T14:20:50.910Z,54.80
2023-01-27T14:23:47.129Z,48.20
2023-01-27T14:26:18.491Z,49.80
2023-01-27T14:29:08.363Z,55.00
2023-01-27T14:32:12.048Z,50.60
2023-01-27T14:35:01.719Z,49.90
2023-01-27T14:37:35.864Z,46.80
2023-01-27T14:42:57.874Z,46.70
2023-01-27T14:45:33.632Z,56.00
2023-01-27T14:48:47.246Z,50.10
2023-01-27T14:51:30.365Z,56.10
2023-01-27T14:54:43.369Z,59.10
2023-01-27T14:57:40.507Z,59.00
2023-01-27T15:00:17.794Z,56.60
2023-01-27T15:03:17.187Z,50.30
2023-01-27T15:06:01.229Z,53.50
2023-01-27T15:11:54.996Z,52.20
2023-01-27T15:14:32.793Z,59.20
2023-01-27T15:17:19.193Z,54.20
2023-01-27T15:20:02.843Z,53.10
2023-01-27T15:22:40.224Z,49.50
2023-01-27T15:25:19.889Z,49.00
2023-01-27T15:27:53.568Z,58.10
2023-01-27T15:30:26.717Z,53.20
2023-01-27T15:32:55.552Z,55.90
2023-01-27T15:35:28.342Z,48.60
2023-01-27T15:38:01.295Z,54.40
2023-01-27T15:40:30.327Z,43.80
2023-01-27T15:43:00.651Z,50.70
2023-01-27T15:45:43.722Z,54.50
2023-01-27T15:48:17.995Z,52.20
2023-01-27T15:51:07.171Z,49.40
2023-01-27T15:53:41.970Z,45.60
2023-01-27T15:56:10.925Z,47.80
2023-01-27T15:58:43.254Z,47.90
2023-01-27T16:01:33.530Z,45.50
2023-01-27T16:04:13.904Z,43.00
2023-01-27T16:06:49.472Z,49.90
2023-01-27T16:09:35.853Z,42.70
2023-01-27T16:12:36.360Z,45.20
2023-01-27T16:15:23.889Z,58.80
2023-01-27T16:17:57.884Z,49.60
2023-01-27T16:20:33.009Z,48.00
2023-01-27T16:23:17.166Z,45.20
2023-01-27T16:28:21.406Z,46.10
2023-01-27T16:31:11.186Z,47.30
2023-01-27T16:33:44.513Z,52.10
2023-01-27T16:36:24.670Z,46.60
2023-01-27T16:38:54.550Z,43.40
2023-01-27T16:41:32.963Z,55.60
2023-01-27T16:44:16.494Z,54.60
2023-01-27T16:46:58.355Z,48.60
2023-01-27T16:52:18.955Z,44.00
2023-01-27T16:54:52.723Z,49.00
2023-01-27T16:57:29.378Z,44.70
2023-01-27T17:00:00.647Z,45.30
2023-01-27T17:02:32.398Z,48.30
2023-01-27T17:05:04.565Z,48.00
2023-01-27T17:07:32.955Z,48.00
2023-01-27T17:10:18.911Z,44.90
2023-01-27T17:12:52.659Z,44.20
2023-01-27T17:15:38.157Z,47.70
2023-01-27T17:18:11.492Z,47.30
2023-01-27T17:20:42.928Z,56.50
2023-01-27T17:23:29.315Z,43.40
2023-01-27T17:25:57.909Z,53.20
2023-01-27T17:28:28.574Z,54.90
2023-01-27T17:31:06.363Z,47.80
2023-01-27T17:33:37.982Z,50.10
2023-01-27T17:36:13.148Z,48.10
2023-01-27T17:38:50.609Z,45.10
2023-01-27T17:41:28.673Z,46.70
2023-01-27T17:44:01.592Z,46.60
2023-01-27T17:46:33.325Z,50.00
2023-01-27T17:49:06.113Z,60.00
2023-01-27T17:51:36.949Z,57.80
2023-01-27T17:54:19.456Z,54.50
2023-01-27T17:56:51.430Z,49.50
2023-01-27T17:59:22.255Z,50.90
2023-01-27T18:01:54.126Z,50.60
2023-01-27T18:04:24.357Z,41.70
2023-01-27T18:06:53.043Z,56.60
2023-01-27T18:09:27.092Z,56.60
2023-01-27T18:12:02.091Z,49.40
2023-01-27T18:14:35.191Z,56.60
2023-01-27T18:17:05.104Z,59.80
2023-01-27T18:19:34.417Z,51.80
2023-01-27T18:22:16.584Z,47.30
2023-01-27T18:25:01.692Z,49.70
2023-01-27T18:27:33.729Z,50.80
2023-01-27T18:30:10.720Z,58.70
2023-01-27T18:32:41.576Z,57.30
2023-01-27T18:35:28.978Z,50.80
2023-01-27T18:38:02.995Z,48.70
2023-01-27T18:40:37.320Z,51.00
2023-01-27T18:43:06.124Z,50.40
2023-01-27T18:45:34.501Z,63.80
2023-01-27T18:48:04.007Z,52.00
2023-01-27T18:50:41.495Z,47.50
2023-01-27T18:53:20.742Z,50.90
2023-01-27T18:55:49.046Z,48.30
2023-01-27T18:58:18.313Z,55.00
2023-01-27T19:00:50.401Z,44.90
2023-01-27T19:03:23.347Z,52.50
2023-01-27T19:05:51.755Z,49.10
2023-01-27T19:08:22.978Z,57.80
2023-01-27T19:10:51.887Z,60.80
2023-01-27T19:13:20.713Z,55.30
2023-01-27T19:15:55.067Z,59.70
2023-01-27T19:18:34.769Z,56.20
2023-01-27T19:21:03.555Z,55.10
2023-01-27T19:23:32.992Z,53.30
2023-01-27T19:26:05.339Z,55.50
2023-01-27T19:28:38.117Z,51.70
2023-01-27T19:31:07.860Z,61.70
2023-01-27T19:33:39.397Z,49.50
2023-01-27T19:36:16.375Z,49.00
2023-01-27T19:38:44.963Z,51.30
2023-01-27T19:41:13.149Z,52.30
2023-01-27T19:43:42.252Z,46.60
2023-01-27T19:46:16.357Z,47.90
2023-01-27T19:51:13.432Z,45.30
2023-01-27T19:53:41.610Z,51.70
2023-01-27T19:56:22.641Z,47.90
2023-01-27T19:58:53.717Z,53.30
2023-01-27T20:01:24.927Z,47.10
2023-01-27T20:03:54.664Z,52.20
2023-01-27T20:06:26.250Z,51.90
2023-01-27T20:08:56.376Z,49.70
2023-01-27T20:11:42.081Z,52.70
2023-01-27T20:14:16.282Z,50.50
2023-01-27T20:16:45.092Z,54.70
2023-01-27T20:19:17.647Z,55.90
2023-01-27T20:21:47.061Z,49.50
2023-01-27T20:24:17.573Z,48.30
2023-01-27T20:26:46.417Z,49.20
2023-01-27T20:29:15.190Z,53.60
2023-01-27T20:31:43.917Z,53.20
2023-01-27T20:34:12.253Z,55.60
2023-01-27T20:36:40.844Z,51.30
2023-01-27T20:39:09.226Z,58.90
2023-01-27T20:41:37.408Z,54.70
2023-01-27T20:44:05.894Z,49.90
2023-01-27T20:46:34.990Z,55.10
2023-01-27T20:49:03.184Z,50.10
2023-01-27T20:51:31.765Z,53.40
2023-01-27T20:54:00.908Z,51.40
2023-01-27T20:56:29.347Z,57.10
2023-01-27T20:58:57.937Z,57.90
2023-01-27T21:01:26.778Z,58.10
2023-01-27T21:03:55.116Z,56.30
2023-01-27T21:06:23.603Z,61.00
2023-01-27T21:08:51.787Z,52.90
2023-01-27T21:11:21.528Z,48.40
2023-01-27T21:13:51.729Z,48.70
2023-01-27T21:16:20.547Z,50.80
2023-01-27T21:18:49.314Z,50.00
2023-01-27T21:21:28.653Z,48.00
2023-01-27T21:24:00.105Z,49.20
2023-01-27T21:26:28.490Z,50.00
2023-01-27T21:28:57.586Z,54.10
2023-01-27T21:31:30.402Z,46.60
2023-01-27T21:34:00.333Z,51.70
2023-01-27T21:36:28.983Z,53.80
2023-01-27T21:38:57.980Z,55.00
2023-01-27T21:41:44.909Z,44.60
2023-01-27T21:44:39.897Z,50.60
2023-01-27T21:47:11.745Z,50.90
2023-01-27T21:50:01.817Z,45.50
2023-01-27T21:52:36.767Z,44.30
2023-01-27T21:55:08.528Z,46.10
2023-01-27T21:57:37.206Z,48.00
2023-01-27T22:00:07.765Z,47.00
2023-01-27T22:02:42.834Z,49.20
2023-01-27T22:05:12.761Z,54.40
2023-01-27T22:07:41.908Z,46.80
2023-01-27T22:10:18.687Z,50.90
2023-01-27T22:12:47.283Z,49.90
2023-01-27T22:15:17.598Z,52.90
2023-01-27T22:17:46.741Z,48.20
2023-01-27T22:20:16.334Z,51.70
2023-01-27T22:22:45.732Z,50.60
2023-01-27T22:25:16.065Z,61.00
2023-01-27T22:27:44.739Z,50.30
2023-01-27T22:30:16.710Z,52.90
2023-01-27T22:32:46.278Z,45.80
2023-01-27T22:35:16.540Z,48.70
2023-01-27T22:37:45.511Z,49.80
2023-01-27T22:40:16.450Z,48.10
2023-01-27T22:42:45.176Z,49.00
2023-01-27T22:45:14.098Z,50.10
2023-01-27T22:47:43.065Z,51.70
2023-01-27T22:50:12.021Z,61.30
2023-01-27T22:52:40.257Z,48.50
2023-01-27T22:55:10.780Z,47.50
2023-01-27T22:57:39.272Z,49.30
2023-01-27T23:00:09.552Z,54.00
2023-01-27T23:02:37.928Z,45.30
2023-01-27T23:05:07.288Z,52.10
2023-01-27T23:07:35.465Z,48.80
2023-01-27T23:10:04.143Z,54.90
2023-01-27T23:12:32.344Z,48.70
2023-01-27T23:15:02.667Z,52.70
2023-01-27T23:17:30.849Z,51.20
2023-01-27T23:19:59.021Z,51.30
2023-01-27T23:22:27.305Z,53.00
2023-01-27T23:24:55.793Z,56.50
2023-01-27T23:27:24.791Z,58.90
2023-01-27T23:29:53.175Z,60.70
2023-01-27T23:32:21.663Z,59.70
2023-01-27T23:34:50.535Z,58.60
2023-01-27T23:37:18.843Z,51.50
2023-01-27T23:39:49.762Z,55.90
2023-01-27T23:42:18.779Z,57.60
2023-01-27T23:44:47.368Z,52.60
2023-01-27T23:47:17.090Z,58.00
2023-01-27T23:49:45.471Z,57.30
2023-01-27T23:52:13.856Z,59.80
2023-01-27T23:54:42.237Z,64.90
2023-01-27T23:57:11.069Z,52.60
2023-01-27T23:59:41.379Z,53.10
